Time;durP1;ratioP1;P1;durP2;ratioP2;P2;SDS_P1;SDS_P2;PMS_P1;PMS_P2;Temp;Humidity;BMP_temperature;BMP_pressure;BME280_temperature;BME280_humidity;BME280_pressure;Samples;Min_cycle;Max_cycle;Signal;HPM_P1;HPM_P2
2021/10/01 05:29:18;;;;;;;3.33;2.15;;;11.70;99.90;;;;;;2622302;46;20220;-74
2021/10/01 05:31:47;;;;;;;3.03;2.17;;;10.60;99.90;;;;;;2626199;47;20197;-74
2021/10/01 05:34:17;;;;;;;3.85;1.83;;;10.50;99.90;;;;;;2625291;54;20171;-73
2021/10/01 05:36:45;;;;;;;2.00;1.55;;;10.50;99.90;;;;;;2620278;47;20258;-76
2021/10/01 05:39:14;;;;;;;1.27;1.20;;;10.60;99.90;;;;;;2620843;54;20203;-74
2021/10/01 05:41:43;;;;;;;5.88;2.33;;;10.60;99.90;;;;;;2620619;54;20153;-75
2021/10/01 05:44:12;;;;;;;5.13;1.85;;;10.70;99.90;;;;;;2621137;54;20165;-74
2021/10/01 05:46:46;;;;;;;2.88;1.90;;;10.70;99.90;;;;;;2622081;54;20161;-74
2021/10/01 05:49:38;;;;;;;2.03;1.70;;;10.70;99.90;;;;;;2621896;47;20654;-74
2021/10/01 05:52:38;;;;;;;4.72;2.65;;;10.80;99.90;;;;;;2621482;47;20189;-75
2021/10/01 05:55:25;;;;;;;2.33;2.00;;;10.70;99.90;;;;;;2621853;54;20161;-75
2021/10/01 05:58:17;;;;;;;6.57;1.80;;;10.80;99.90;;;;;;2620447;47;20205;-75
2021/10/01 06:00:57;;;;;;;1.77;1.67;;;10.90;99.90;;;;;;2620371;47;20164;-74
2021/10/01 06:03:28;;;;;;;5.65;2.65;;;10.90;99.90;;;;;;2621307;54;20160;-75
2021/10/01 06:05:57;;;;;;;1.88;1.38;;;10.80;99.90;;;;;;2620813;46;20168;-75
2021/10/01 06:08:26;;;;;;;7.38;1.90;;;10.90;99.90;;;;;;2621726;54;20229;-75
2021/10/01 06:10:55;;;;;;;1.75;1.60;;;10.90;99.90;;;;;;2621430;47;20149;-75
2021/10/01 06:13:23;;;;;;;4.40;2.00;;;11.00;99.90;;;;;;2621407;54;20172;-75
2021/10/01 06:15:54;;;;;;;4.15;2.08;;;10.90;99.90;;;;;;2621309;54;20165;-75
2021/10/01 06:18:22;;;;;;;3.20;1.55;;;10.90;99.90;;;;;;2620906;47;20241;-74
2021/10/01 06:20:54;;;;;;;1.90;1.70;;;10.90;99.90;;;;;;2620910;47;20148;-75
2021/10/01 06:23:26;;;;;;;4.20;1.73;;;11.00;99.90;;;;;;2621024;47;20721;-75
2021/10/01 06:25:54;;;;;;;4.95;1.80;;;11.00;99.90;;;;;;2622774;47;20736;-76
2021/10/01 06:28:23;;;;;;;4.05;2.20;;;10.90;99.90;;;;;;2620705;47;20304;-75
2021/10/01 06:30:52;;;;;;;6.53;2.35;;;10.90;99.90;;;;;;2622146;39;20566;-74
2021/10/01 06:33:21;;;;;;;1.98;1.77;;;11.00;99.90;;;;;;2621280;47;20155;-76
2021/10/01 06:35:49;;;;;;;4.13;1.50;;;11.10;99.90;;;;;;2621401;47;20170;-75
2021/10/01 06:38:21;;;;;;;5.57;1.70;;;11.20;99.90;;;;;;2620956;54;20282;-74
2021/10/01 06:40:49;;;;;;;2.08;1.45;;;11.30;99.90;;;;;;2620991;54;20708;-75
2021/10/01 06:43:19;;;;;;;1.90;1.55;;;11.20;99.90;;;;;;2621536;47;20168;-76
2021/10/01 06:45:51;;;;;;;4.35;1.73;;;11.30;99.90;;;;;;2621094;47;20188;-75
2021/10/01 06:48:28;;;;;;;2.78;1.30;;;11.40;99.90;;;;;;2620052;47;20234;-74
2021/10/01 07:23:52;;;;;;;3.40;1.45;;;12.50;99.90;;;;;;2620868;47;20176;-74
2021/10/01 07:45:38;;;;;;;2.70;1.52;;;12.50;99.90;;;;;;2621638;47;20161;-74
2021/10/01 08:20:28;;;;;;;2.65;2.22;;;13.30;99.90;;;;;;2624836;47;20183;-75
2021/10/01 08:22:57;;;;;;;2.20;1.48;;;13.30;99.90;;;;;;2623925;47;20147;-75
2021/10/01 08:25:26;;;;;;;5.43;1.38;;;13.20;99.90;;;;;;2623101;47;20161;-75
2021/10/01 08:27:55;;;;;;;1.95;1.17;;;13.40;99.90;;;;;;2625866;54;20201;-77
2021/10/01 08:30:26;;;;;;;2.25;1.40;;;13.30;99.90;;;;;;2621561;51;20155;-75
2021/10/01 08:32:55;;;;;;;2.33;1.33;;;13.40;99.90;;;;;;2622088;54;20720;-75
2021/10/01 08:35:24;;;;;;;2.08;1.58;;;13.60;99.90;;;;;;2623794;54;20164;-76
2021/10/01 08:37:54;;;;;;;1.88;1.33;;;13.60;99.90;;;;;;2622338;47;20177;-76
2021/10/01 08:40:24;;;;;;;1.75;1.20;;;13.70;99.90;;;;;;2623824;46;20187;-76
2021/10/01 08:42:54;;;;;;;5.70;1.95;;;13.70;99.90;;;;;;2623216;54;20220;-77
2021/10/01 08:45:28;;;;;;;5.18;1.52;;;13.80;99.90;;;;;;2624409;47;20222;-76
2021/10/01 08:47:59;;;;;;;2.70;1.42;;;13.90;99.90;;;;;;2626579;54;20173;-77
2021/10/01 08:50:30;;;;;;;7.20;1.60;;;14.00;99.90;;;;;;2624804;54;20161;-75
2021/10/01 08:53:00;;;;;;;3.50;1.23;;;14.10;99.90;;;;;;2624510;47;20655;-76
2021/10/01 08:55:29;;;;;;;5.05;1.77;;;14.20;99.90;;;;;;2623935;47;20164;-76
2021/10/01 08:57:58;;;;;;;3.28;1.63;;;14.20;99.90;;;;;;2625990;47;20196;-75
2021/10/01 09:00:30;;;;;;;1.63;1.10;;;14.30;99.90;;;;;;2622318;54;20161;-77
2021/10/01 09:02:59;;;;;;;3.15;1.30;;;14.40;99.90;;;;;;2623076;54;20141;-75
2021/10/01 09:05:28;;;;;;;2.38;1.67;;;14.50;99.90;;;;;;2623198;47;20186;-76
2021/10/01 09:07:57;;;;;;;3.53;1.50;;;14.60;99.90;;;;;;2623073;46;20718;-77
2021/10/01 09:10:25;;;;;;;6.07;1.50;;;14.50;99.90;;;;;;2623961;54;20153;-77
2021/10/01 09:12:55;;;;;;;3.10;1.23;;;14.60;99.90;;;;;;2624437;47;20674;-77
2021/10/01 09:15:25;;;;;;;1.88;1.38;;;14.70;99.90;;;;;;2622598;47;20149;-76
2021/10/01 09:18:02;;;;;;;4.05;1.77;;;14.80;99.90;;;;;;2624702;47;20184;-76
2021/10/01 09:20:31;;;;;;;3.97;1.35;;;14.80;99.90;;;;;;2624710;54;20161;-75
2021/10/01 09:23:17;;;;;;;3.92;1.48;;;14.80;99.90;;;;;;2625224;46;20165;-77
2021/10/01 09:25:46;;;;;;;3.10;1.10;;;14.90;99.90;;;;;;2625646;54;20160;-77
2021/10/01 09:28:15;;;;;;;3.63;1.35;;;14.90;99.90;;;;;;2625640;39;20609;-77
2021/10/01 09:30:48;;;;;;;4.40;1.98;;;15.10;99.90;;;;;;2626000;46;20164;-76
2021/10/01 09:33:22;;;;;;;4.57;2.03;;;15.20;99.90;;;;;;2624855;49;20211;-76
2021/10/01 09:35:52;;;;;;;2.30;1.90;;;15.30;99.90;;;;;;2623018;47;20662;-78
2021/10/01 09:38:22;;;;;;;2.20;1.45;;;15.30;99.90;;;;;;2622351;47;20192;-74
2021/10/01 09:41:14;;;;;;;6.95;1.80;;;15.40;99.90;;;;;;2624101;47;20667;-75
2021/10/01 09:43:43;;;;;;;16.95;11.05;;;15.40;99.90;;;;;;2625000;54;20161;-75
2021/10/01 09:46:14;;;;;;;3.03;2.47;;;15.50;99.90;;;;;;2624479;54;20149;-77
2021/10/01 09:48:45;;;;;;;1.60;1.20;;;15.60;99.90;;;;;;2627304;54;20201;-77
2021/10/01 09:51:17;;;;;;;2.20;1.10;;;15.70;99.90;;;;;;2626697;39;20231;-78
2021/10/01 09:53:47;;;;;;;4.07;1.50;;;15.70;99.90;;;;;;2625000;39;20594;-76
2021/10/01 09:56:24;;;;;;;3.80;1.33;;;16.00;99.90;;;;;;2625064;47;20157;-77
2021/10/01 09:59:06;;;;;;;2.55;1.40;;;16.10;99.90;;;;;;2622803;54;20227;-76
2021/10/01 10:01:35;;;;;;;3.35;1.65;;;16.10;99.90;;;;;;2620475;47;20168;-76
2021/10/01 10:04:19;;;;;;;5.93;1.42;;;16.00;99.90;;;;;;2622185;54;20215;-77
2021/10/01 10:06:48;;;;;;;2.55;1.05;;;16.10;99.90;;;;;;2623916;54;20160;-75
2021/10/01 10:09:17;;;;;;;1.40;1.27;;;16.20;99.90;;;;;;2623121;47;20157;-77
2021/10/01 10:11:46;;;;;;;4.32;1.10;;;16.20;99.90;;;;;;2621358;47;20173;-75
2021/10/01 10:14:15;;;;;;;6.30;1.63;;;16.20;99.90;;;;;;2623596;54;20164;-77
2021/10/01 10:16:44;;;;;;;2.97;1.50;;;16.20;99.90;;;;;;2622762;54;20157;-77
2021/10/01 10:19:20;;;;;;;6.20;1.63;;;16.30;99.90;;;;;;2622017;47;20243;-77
2021/10/01 10:21:52;;;;;;;2.00;1.00;;;16.30;99.90;;;;;;2623482;47;20191;-78
2021/10/01 10:24:21;;;;;;;4.75;1.15;;;16.50;99.90;;;;;;2625471;47;20161;-76
2021/10/01 10:26:49;;;;;;;3.15;1.10;;;16.70;99.90;;;;;;2625344;54;20187;-77
2021/10/01 10:29:19;;;;;;;1.90;1.33;;;16.80;99.90;;;;;;2624018;47;20207;-77
2021/10/01 10:31:50;;;;;;;2.38;1.15;;;16.80;99.90;;;;;;2625566;46;20188;-77
2021/10/01 10:34:23;;;;;;;4.05;1.45;;;17.10;99.90;;;;;;2625216;54;20168;-77
2021/10/01 10:37:09;;;;;;;3.05;1.30;;;17.70;99.90;;;;;;2625572;47;20257;-75
2021/10/01 10:39:46;;;;;;;6.30;1.60;;;18.10;99.90;;;;;;2624388;47;20145;-75
2021/10/01 10:42:22;;;;;;;3.05;1.77;;;18.30;99.90;;;;;;2622758;47;20260;-77
2021/10/01 10:44:54;;;;;;;2.10;0.90;;;18.40;99.90;;;;;;2622822;54;20168;-75
2021/10/01 10:47:48;;;;;;;2.38;1.27;;;18.80;99.90;;;;;;2626203;54;20169;-79
2021/10/01 10:50:38;;;;;;;3.63;0.90;;;18.90;99.90;;;;;;2629481;46;20180;-77
2021/10/01 10:53:33;;;;;;;1.88;1.15;;;19.30;99.90;;;;;;2628714;54;20169;-77
2021/10/01 10:56:06;;;;;;;1.13;0.90;;;19.30;99.90;;;;;;2623965;54;20153;-74
2021/10/01 10:58:56;;;;;;;3.33;1.00;;;18.80;99.90;;;;;;2623906;47;20196;-73
2021/10/01 11:01:26;;;;;;;4.22;1.63;;;;;;;;;;2629332;54;20185;-74
2021/10/01 11:04:10;;;;;;;1.55;1.00;;;;;;;;;;2625498;47;20157;-74
2021/10/01 11:06:40;;;;;;;3.63;1.58;;;;;;;;;;2624477;46;20169;-71
2021/10/01 11:09:24;;;;;;;1.23;0.70;;;;;;;;;;2621854;47;20193;-76
2021/10/01 11:11:58;;;;;;;0.85;0.80;;;18.50;99.90;;;;;;2623319;39;20594;-76
2021/10/01 11:14:28;;;;;;;1.60;0.90;;;18.70;99.90;;;;;;2620621;47;20168;-73
2021/10/01 11:17:22;;;;;;;1.98;1.13;;;18.70;99.90;;;;;;2621022;47;20149;-75
2021/10/01 11:19:55;;;;;;;3.50;1.25;;;18.80;99.90;;;;;;2626125;54;20157;-76
2021/10/01 11:22:32;;;;;;;5.30;1.17;;;19.00;99.90;;;;;;2625830;47;20148;-82
2021/10/01 11:25:06;;;;;;;0.95;0.77;;;19.20;99.90;;;;;;2627578;54;20222;-77
2021/10/01 11:28:01;;;;;;;4.78;0.90;;;19.50;99.90;;;;;;2627787;47;20256;-78
2021/10/01 11:30:37;;;;;;;1.60;0.50;;;19.70;99.90;;;;;;2630047;54;20153;-77
2021/10/01 11:33:12;;;;;;;2.15;0.60;;;19.80;99.90;;;;;;2630260;54;20144;-78
2021/10/01 11:35:49;;;;;;;2.08;0.80;;;19.60;99.90;;;;;;2629201;54;20157;-79
2021/10/01 11:38:33;;;;;;;2.35;0.80;;;19.70;99.90;;;;;;2627101;47;20216;-79
2021/10/01 11:41:18;;;;;;;2.58;1.00;;;19.60;99.90;;;;;;2630951;54;20149;-80
2021/10/01 11:48:58;;;;;;;2.88;1.98;;;20.10;99.90;;;;;;2610526;47;20196;-80
2021/10/01 11:54:21;;;;;;;0.57;0.55;;;20.90;99.90;;;;;;2626315;54;20204;-79
2021/10/01 11:59:25;;;;;;;2.65;1.00;;;21.00;99.90;;;;;;2630644;54;20179;-80
2021/10/01 12:02:00;;;;;;;5.63;1.27;;;20.90;99.90;;;;;;2626996;54;20192;-80
2021/10/01 12:04:36;;;;;;;1.92;1.15;;;20.80;99.90;;;;;;2636907;39;20695;-80
2021/10/01 12:07:07;;;;;;;1.75;1.20;;;20.50;99.90;;;;;;2626346;47;20695;-77
2021/10/01 12:09:39;;;;;;;2.63;0.80;;;20.70;99.90;;;;;;2630160;47;20157;-76
2021/10/01 12:12:09;;;;;;;2.55;0.90;;;20.70;99.90;;;;;;2630154;47;20157;-79
2021/10/01 12:14:38;;;;;;;1.73;1.00;;;20.80;99.90;;;;;;2629260;46;20181;-76
2021/10/01 12:17:09;;;;;;;1.13;0.82;;;21.20;99.90;;;;;;2627159;54;20157;-75
2021/10/01 12:19:38;;;;;;;0.60;0.50;;;20.90;99.90;;;;;;2629165;39;20257;-76
2021/10/01 12:22:10;;;;;;;1.98;0.90;;;20.80;99.90;;;;;;2630686;39;20636;-76
2021/10/01 12:24:50;;;;;;;4.20;1.05;;;20.50;99.90;;;;;;2628835;54;20153;-76
2021/10/01 12:27:22;;;;;;;2.95;1.02;;;20.80;99.90;;;;;;2627143;54;20149;-77
2021/10/01 12:29:53;;;;;;;2.50;0.70;;;20.60;99.90;;;;;;2626906;47;20165;-76
2021/10/01 12:32:23;;;;;;;2.70;1.00;;;20.30;99.90;;;;;;2630763;47;20181;-80
2021/10/01 12:34:55;;;;;;;1.98;1.10;;;20.30;99.90;;;;;;2634851;39;20643;-82
2021/10/01 12:37:27;;;;;;;3.47;0.90;;;20.80;99.90;;;;;;2630898;47;20145;-80
2021/10/01 12:40:03;;;;;;;0.70;0.70;;;20.80;99.90;;;;;;2630408;47;20167;-81
2021/10/01 12:42:33;;;;;;;1.73;0.60;;;20.70;99.90;;;;;;2631237;54;21022;-79
2021/10/01 12:45:06;;;;;;;2.92;1.00;;;20.90;99.90;;;;;;2631101;54;20179;-80
2021/10/01 12:47:37;;;;;;;2.05;0.98;;;20.70;99.90;;;;;;2630751;54;20149;-79
2021/10/01 12:50:08;;;;;;;1.33;1.10;;;20.80;99.90;;;;;;2630657;47;20165;-79
2021/10/01 12:52:39;;;;;;;0.52;0.52;;;21.10;99.90;;;;;;2631081;46;20181;-77
2021/10/01 12:55:13;;;;;;;4.30;0.85;;;21.00;99.90;;;;;;2631278;54;20149;-77
2021/10/01 12:57:44;;;;;;;1.92;0.90;;;20.70;99.90;;;;;;2629555;54;20197;-79
2021/10/01 13:00:18;;;;;;;1.08;0.75;;;20.60;99.90;;;;;;2630202;46;20161;-78
2021/10/01 13:02:50;;;;;;;2.88;0.90;;;20.30;99.90;;;;;;2630227;47;20160;-77
2021/10/01 13:05:24;;;;;;;1.40;0.80;;;20.10;99.90;;;;;;2629682;47;20154;-79
2021/10/01 13:07:54;;;;;;;1.45;0.77;;;19.90;99.90;;;;;;2629789;47;20207;-80
2021/10/01 13:10:37;;;;;;;2.78;0.75;;;19.90;99.90;;;;;;2629564;47;20161;-77
2021/10/01 13:13:12;;;;;;;1.77;0.85;;;19.80;99.90;;;;;;2630565;54;20145;-78
2021/10/01 13:15:46;;;;;;;3.17;0.50;;;19.80;99.90;;;;;;2630633;47;20188;-77
2021/10/01 13:18:26;;;;;;;3.75;0.90;;;19.70;99.90;;;;;;2630683;54;20165;-78
2021/10/01 13:20:58;;;;;;;1.17;0.55;;;19.60;99.90;;;;;;2630491;54;20145;-79
2021/10/01 13:23:36;;;;;;;4.43;1.15;;;19.70;99.90;;;;;;2631117;54;20141;-79
2021/10/01 13:26:15;;;;;;;2.75;0.70;;;19.90;99.90;;;;;;2632630;39;20820;-78
2021/10/01 13:28:45;;;;;;;2.67;0.65;;;19.80;99.90;;;;;;2630707;47;20192;-80
2021/10/01 13:31:14;;;;;;;2.08;0.95;;;19.70;99.90;;;;;;2631081;47;20161;-78
2021/10/01 13:33:44;;;;;;;1.30;0.75;;;19.70;99.90;;;;;;2630839;47;20164;-77
2021/10/01 13:36:14;;;;;;;3.63;0.60;;;19.60;99.90;;;;;;2630679;46;20149;-78
2021/10/01 13:38:45;;;;;;;2.72;0.82;;;19.40;99.90;;;;;;2630746;46;20177;-79
2021/10/01 13:41:19;;;;;;;0.90;0.90;;;19.30;99.90;;;;;;2630559;54;20209;-76
2021/10/01 13:43:48;;;;;;;2.92;0.80;;;19.40;99.90;;;;;;2630454;46;20153;-77
2021/10/01 13:46:19;;;;;;;2.08;0.75;;;19.50;99.90;;;;;;2630572;46;20160;-76
2021/10/01 13:48:48;;;;;;;1.15;0.70;;;19.50;99.90;;;;;;2630705;47;20944;-77
2021/10/01 13:51:17;;;;;;;1.90;0.95;;;19.40;99.90;;;;;;2630297;47;20141;-78
2021/10/01 13:53:46;;;;;;;2.05;0.80;;;19.20;99.90;;;;;;2630697;54;20873;-78
2021/10/01 13:56:18;;;;;;;2.05;0.93;;;19.20;99.90;;;;;;2630278;46;20133;-77
2021/10/01 13:58:46;;;;;;;1.33;0.73;;;19.30;99.90;;;;;;2629992;47;20186;-78
2021/10/01 14:01:16;;;;;;;1.95;1.08;;;19.30;99.90;;;;;;2630960;54;20140;-78
2021/10/01 14:03:44;;;;;;;1.17;0.68;;;19.80;99.90;;;;;;2630479;54;20149;-78
2021/10/01 14:06:13;;;;;;;0.85;0.73;;;20.00;99.90;;;;;;2628903;54;20164;-77
2021/10/01 14:08:42;;;;;;;3.53;1.10;;;20.40;99.90;;;;;;2628157;47;20745;-77
2021/10/01 14:11:11;;;;;;;2.40;1.30;;;20.80;99.90;;;;;;2628024;47;20153;-76
2021/10/01 14:13:42;;;;;;;1.25;0.55;;;20.80;99.90;;;;;;2625948;47;20153;-76
2021/10/01 14:16:11;;;;;;;1.70;0.85;;;20.60;99.90;;;;;;2628770;47;20884;-76
2021/10/01 14:18:40;;;;;;;1.52;0.93;;;20.60;99.90;;;;;;2627926;47;20177;-76
2021/10/01 14:21:09;;;;;;;0.98;0.90;;;20.50;99.90;;;;;;2628217;54;20192;-75
2021/10/01 14:23:37;;;;;;;2.58;0.68;;;20.40;99.90;;;;;;2627833;47;20184;-74
2021/10/01 14:26:06;;;;;;;0.85;0.70;;;20.70;99.90;;;;;;2623257;47;20204;-75
2021/10/01 14:28:35;;;;;;;1.13;0.90;;;20.90;99.90;;;;;;2623358;47;20199;-75
2021/10/01 14:31:06;;;;;;;1.33;0.63;;;21.10;99.90;;;;;;2623715;47;20180;-75
2021/10/01 14:33:35;;;;;;;0.88;0.70;;;21.00;99.90;;;;;;2623438;47;20687;-75
2021/10/01 14:36:04;;;;;;;1.52;0.77;;;20.70;99.90;;;;;;2626585;54;20165;-76
2021/10/01 14:38:33;;;;;;;3.72;1.02;;;20.80;99.90;;;;;;2627279;47;20200;-77
2021/10/01 14:41:02;;;;;;;4.28;1.02;;;20.60;99.90;;;;;;2626059;47;20160;-76
2021/10/01 14:43:31;;;;;;;2.47;1.30;;;21.10;99.90;;;;;;2629812;47;20404;-76
2021/10/01 14:46:00;;;;;;;1.35;0.70;;;21.40;99.90;;;;;;2630024;47;20129;-75
2021/10/01 14:48:31;;;;;;;4.63;0.80;;;21.70;99.90;;;;;;2630143;54;20196;-77
2021/10/01 14:51:03;;;;;;;3.03;0.88;;;21.20;99.90;;;;;;2630875;47;20138;-77
2021/10/01 14:53:33;;;;;;;1.98;0.80;;;20.70;99.90;;;;;;2630586;47;20835;-77
2021/10/01 14:56:01;;;;;;;2.17;0.73;;;20.20;99.90;;;;;;2630514;47;20245;-77
2021/10/01 14:58:30;;;;;;;2.90;1.45;;;19.90;99.90;;;;;;2630631;46;20187;-77
2021/10/01 15:00:59;;;;;;;1.40;1.02;;;19.90;99.90;;;;;;2630809;54;20157;-76
2021/10/01 15:03:31;;;;;;;1.73;0.77;;;19.70;99.90;;;;;;2630378;47;20173;-77
2021/10/01 15:05:59;;;;;;;2.25;0.65;;;19.50;99.90;;;;;;2630579;47;20184;-77
2021/10/01 15:08:29;;;;;;;1.95;0.85;;;19.50;99.90;;;;;;2630637;47;20161;-77
2021/10/01 15:10:58;;;;;;;1.10;0.98;;;19.40;99.90;;;;;;2631007;46;20153;-77
2021/10/01 15:13:26;;;;;;;1.60;1.50;;;19.20;99.90;;;;;;2630936;54;20177;-78
2021/10/01 15:15:55;;;;;;;64.97;50.10;;;19.20;99.90;;;;;;2630977;47;20138;-77
2021/10/01 15:18:24;;;;;;;9.57;6.80;;;19.00;99.90;;;;;;2630839;47;20142;-77
2021/10/01 15:20:55;;;;;;;1.58;1.15;;;19.00;99.90;;;;;;2630963;47;20157;-77
2021/10/01 15:23:24;;;;;;;2.22;1.02;;;19.00;99.90;;;;;;2630831;47;20129;-77
2021/10/01 15:25:53;;;;;;;1.60;0.80;;;19.00;99.90;;;;;;2639870;39;20663;-77
2021/10/01 15:28:23;;;;;;;3.13;1.30;;;18.90;99.90;;;;;;2630686;47;20180;-76
2021/10/01 15:30:52;;;;;;;1.55;1.30;;;18.80;99.90;;;;;;2630956;47;20145;-78
2021/10/01 15:33:20;;;;;;;2.45;1.20;;;18.80;99.90;;;;;;2630783;47;20130;-78
2021/10/01 15:35:49;;;;;;;1.67;1.30;;;18.80;99.90;;;;;;2630748;47;20122;-79
2021/10/01 15:38:21;;;;;;;0.85;0.85;;;18.70;99.90;;;;;;2636867;39;20661;-78
2021/10/01 15:40:50;;;;;;;2.90;1.33;;;18.80;99.90;;;;;;2630715;47;20157;-79
2021/10/01 15:43:19;;;;;;;4.28;2.72;;;18.80;99.90;;;;;;2630753;47;20148;-79
2021/10/01 15:45:50;;;;;;;2.30;2.10;;;18.60;99.90;;;;;;2630800;47;20125;-79
2021/10/01 15:48:19;;;;;;;3.47;1.40;;;18.50;99.90;;;;;;2630578;47;20161;-77
2021/10/01 15:50:48;;;;;;;2.92;1.80;;;18.50;99.90;;;;;;2630777;54;20141;-78
2021/10/01 15:53:21;;;;;;;5.28;1.42;;;18.50;99.90;;;;;;2630755;47;20145;-78
2021/10/01 15:55:50;;;;;;;1.77;1.50;;;18.30;99.90;;;;;;2630834;54;20137;-77
2021/10/01 15:58:18;;;;;;;3.78;1.33;;;18.30;99.90;;;;;;2630412;47;20165;-77
2021/10/01 16:00:47;;;;;;;2.88;2.17;;;18.20;99.90;;;;;;2630058;47;20165;-77
2021/10/01 16:03:17;;;;;;;2.50;2.22;;;18.20;99.90;;;;;;2630571;54;20145;-78
2021/10/01 16:05:50;;;;;;;4.68;1.40;;;18.10;99.90;;;;;;2630742;47;20149;-78
2021/10/01 16:08:21;;;;;;;2.88;1.48;;;18.00;99.90;;;;;;2631299;47;20157;-76
2021/10/01 16:10:50;;;;;;;1.00;0.90;;;18.10;99.90;;;;;;2631484;47;20165;-78
2021/10/01 16:13:19;;;;;;;5.45;1.20;;;18.20;99.90;;;;;;2635993;39;20643;-78
2021/10/01 16:15:47;;;;;;;4.68;2.75;;;18.20;99.90;;;;;;2631307;47;20133;-78
2021/10/01 16:18:16;;;;;;;7.28;5.35;;;18.10;99.90;;;;;;2631321;51;20181;-79
2021/10/01 16:20:45;;;;;;;1.50;1.40;;;18.10;99.90;;;;;;2631444;47;20154;-79
2021/10/01 16:23:14;;;;;;;3.25;1.55;;;18.10;99.90;;;;;;2631443;47;20150;-78
2021/10/01 16:25:45;;;;;;;2.40;1.48;;;18.00;99.90;;;;;;2631528;47;20134;-78
2021/10/01 16:28:14;;;;;;;3.17;1.50;;;18.00;99.90;;;;;;2631226;54;20177;-78
2021/10/01 16:30:46;;;;;;;5.22;2.88;;;18.10;99.90;;;;;;2631529;46;20136;-78
2021/10/01 16:33:16;;;;;;;2.80;1.15;;;18.00;99.90;;;;;;2631449;54;20149;-78
2021/10/01 16:35:45;;;;;;;2.03;1.20;;;18.00;99.90;;;;;;2631522;46;20130;-79
2021/10/01 16:38:14;;;;;;;3.35;1.02;;;18.10;99.90;;;;;;2631206;47;20173;-79
2021/10/01 16:40:46;;;;;;;4.47;2.47;;;18.00;99.90;;;;;;2631416;47;20136;-78
2021/10/01 16:43:16;;;;;;;5.43;3.70;;;17.90;99.90;;;;;;2631363;46;20153;-79
2021/10/01 16:45:46;;;;;;;1.92;1.52;;;17.90;99.90;;;;;;2631332;47;20136;-78
2021/10/01 16:48:15;;;;;;;2.40;1.42;;;17.90;99.90;;;;;;2631067;54;20169;-77
2021/10/01 16:50:44;;;;;;;2.92;2.00;;;17.70;99.90;;;;;;2631258;54;20153;-78
2021/10/01 16:53:16;;;;;;;3.72;2.00;;;17.60;99.90;;;;;;2631096;54;20198;-78
2021/10/01 16:55:48;;;;;;;2.83;1.20;;;17.40;99.90;;;;;;2631011;54;20156;-77
2021/10/01 16:58:17;;;;;;;4.10;2.15;;;17.40;99.90;;;;;;2630403;54;20185;-77
2021/10/01 17:00:45;;;;;;;2.53;2.33;;;17.30;99.90;;;;;;2630649;47;20201;-78
2021/10/01 17:03:14;;;;;;;6.57;2.30;;;17.20;99.90;;;;;;2631107;54;20245;-78
2021/10/01 17:05:43;;;;;;;3.78;2.45;;;17.20;99.90;;;;;;2631338;54;20157;-79
2021/10/01 17:08:12;;;;;;;4.53;2.75;;;17.10;99.90;;;;;;2631047;47;20164;-78
2021/10/01 17:10:40;;;;;;;3.63;1.90;;;17.10;99.90;;;;;;2631172;47;20130;-78
2021/10/01 17:13:12;;;;;;;3.22;1.98;;;16.90;99.90;;;;;;2631280;51;20125;-77
2021/10/01 17:15:41;;;;;;;2.08;1.52;;;16.90;99.90;;;;;;2631258;47;20140;-77
2021/10/01 17:18:10;;;;;;;2.13;1.20;;;16.80;99.90;;;;;;2631001;54;20250;-78
2021/10/01 17:20:39;;;;;;;3.22;1.60;;;16.80;99.90;;;;;;2631290;47;20817;-78
2021/10/01 17:23:11;;;;;;;6.07;3.50;;;16.70;99.90;;;;;;2631235;47;20707;-78
2021/10/01 17:25:41;;;;;;;3.40;3.05;;;16.60;99.90;;;;;;2631357;47;20185;-78
2021/10/01 17:28:12;;;;;;;9.65;5.57;;;16.60;99.90;;;;;;2629265;46;20239;-79
2021/10/01 17:30:41;;;;;;;7.00;3.60;;;16.50;99.90;;;;;;2630471;47;20806;-78
2021/10/01 17:33:10;;;;;;;3.55;3.10;;;16.40;99.90;;;;;;2630677;47;20160;-79
2021/10/01 17:35:41;;;;;;;3.40;2.60;;;16.40;99.90;;;;;;2631185;47;20130;-79
2021/10/01 17:38:10;;;;;;;2.53;1.80;;;16.30;99.90;;;;;;2631017;47;20189;-78
2021/10/01 17:40:39;;;;;;;2.78;1.98;;;16.20;99.90;;;;;;2631187;51;20125;-79
2021/10/01 17:43:08;;;;;;;3.45;2.13;;;16.20;99.90;;;;;;2631042;47;20156;-78
2021/10/01 17:45:40;;;;;;;4.88;3.28;;;16.20;99.90;;;;;;2631335;47;20134;-78
2021/10/01 17:48:09;;;;;;;21.77;17.30;;;16.20;99.90;;;;;;2633148;39;20753;-79
2021/10/01 17:50:38;;;;;;;21.38;17.00;;;16.30;99.90;;;;;;2630959;46;20156;-79
2021/10/01 17:53:07;;;;;;;16.67;14.23;;;16.40;99.90;;;;;;2631246;51;20136;-79
2021/10/01 17:55:36;;;;;;;6.10;2.60;;;16.60;99.90;;;;;;2631212;47;20134;-79
2021/10/01 17:58:05;;;;;;;7.80;4.85;;;16.70;99.90;;;;;;2630913;47;20167;-78
2021/10/01 18:00:39;;;;;;;7.88;1.80;;;16.80;99.90;;;;;;2632465;46;20145;-81
2021/10/01 18:03:10;;;;;;;3.83;1.67;;;16.90;99.90;;;;;;2631117;47;20186;-80
2021/10/01 18:05:40;;;;;;;3.58;1.13;;;16.90;99.90;;;;;;2631213;54;20160;-79
2021/10/01 18:08:09;;;;;;;3.28;1.67;;;16.90;99.90;;;;;;2631016;47;20161;-80
2021/10/01 18:10:37;;;;;;;5.57;2.60;;;17.00;99.90;;;;;;2631155;47;20133;-81
2021/10/01 18:13:06;;;;;;;6.03;3.17;;;16.80;99.90;;;;;;2631216;54;20828;-80
2021/10/01 18:15:35;;;;;;;4.15;1.95;;;16.80;99.90;;;;;;2631084;47;20126;-79
2021/10/01 18:18:05;;;;;;;2.58;1.58;;;16.80;99.90;;;;;;2630907;47;20183;-80
2021/10/01 18:20:37;;;;;;;2.25;1.20;;;16.80;99.90;;;;;;2631099;47;20129;-78
2021/10/01 18:23:06;;;;;;;2.28;0.98;;;16.70;99.90;;;;;;2631175;47;20146;-79
2021/10/01 18:25:35;;;;;;;3.28;1.30;;;16.70;99.90;;;;;;2631157;47;20141;-80
2021/10/01 18:28:04;;;;;;;2.30;1.65;;;16.50;99.90;;;;;;2630798;46;20157;-79
2021/10/01 18:30:33;;;;;;;2.22;1.48;;;16.50;99.90;;;;;;2630646;47;20145;-79
2021/10/01 18:33:01;;;;;;;1.40;1.30;;;16.30;99.90;;;;;;2631037;54;20153;-79
2021/10/01 18:35:31;;;;;;;3.70;1.92;;;16.30;99.90;;;;;;2632890;39;20718;-79
2021/10/01 18:38:03;;;;;;;2.35;1.50;;;16.50;99.90;;;;;;2630832;47;20157;-80
2021/10/01 18:40:33;;;;;;;2.10;1.95;;;16.40;99.90;;;;;;2631067;47;20145;-81
2021/10/01 18:43:02;;;;;;;4.53;3.30;;;16.40;99.90;;;;;;2631040;46;20256;-80
2021/10/01 18:45:31;;;;;;;5.38;3.53;;;16.10;99.90;;;;;;2631020;47;20683;-79
2021/10/01 18:48:00;;;;;;;2.55;2.30;;;16.00;99.90;;;;;;2630734;47;20173;-79
2021/10/01 18:50:29;;;;;;;3.03;2.58;;;16.00;99.90;;;;;;2631063;47;20130;-78
2021/10/01 18:52:58;;;;;;;5.00;2.40;;;16.00;99.90;;;;;;2631085;47;20149;-81
2021/10/01 18:55:29;;;;;;;3.03;1.20;;;16.00;99.90;;;;;;2630833;47;20146;-78
2021/10/01 18:57:58;;;;;;;3.58;1.13;;;16.00;99.90;;;;;;2630658;46;20192;-79
2021/10/01 19:00:27;;;;;;;2.05;1.50;;;16.00;99.90;;;;;;2634507;39;20823;-80
2021/10/01 19:02:56;;;;;;;1.83;1.20;;;15.90;99.90;;;;;;2630436;54;20148;-76
2021/10/01 19:05:26;;;;;;;1.02;0.90;;;16.10;99.90;;;;;;2630579;47;20146;-78
2021/10/01 19:07:56;;;;;;;1.52;1.27;;;16.00;99.90;;;;;;2630019;47;20149;-79
2021/10/01 19:10:25;;;;;;;2.58;1.40;;;16.00;99.90;;;;;;2630439;54;20344;-78
2021/10/01 19:12:56;;;;;;;5.97;1.70;;;15.90;99.90;;;;;;2637323;39;20768;-79
2021/10/01 19:15:25;;;;;;;0.93;0.93;;;15.90;99.90;;;;;;2630752;46;20160;-78
2021/10/01 19:17:53;;;;;;;6.50;5.90;;;15.90;99.90;;;;;;2638265;39;20721;-78
2021/10/01 19:20:22;;;;;;;4.45;3.30;;;15.80;99.90;;;;;;2635753;39;20748;-77
2021/10/01 19:22:56;;;;;;;1.92;1.70;;;15.80;99.90;;;;;;2631306;46;20149;-78
2021/10/01 19:25:32;;;;;;;1.55;1.45;;;15.80;99.90;;;;;;2630845;47;20148;-78
2021/10/01 19:28:19;;;;;;;3.25;1.40;;;15.80;99.90;;;;;;2630514;47;20211;-79
2021/10/01 19:30:45;;;;;;;1.20;1.10;;;15.80;99.90;;;;;;2635069;31;20759;-78
2021/10/01 19:33:14;;;;;;;1.85;1.30;;;15.70;99.90;;;;;;2631004;47;20167;-79
2021/10/01 19:35:43;;;;;;;8.90;6.28;;;15.50;99.90;;;;;;2631034;47;20152;-80
2021/10/01 19:38:12;;;;;;;13.18;9.73;;;15.50;99.90;;;;;;2630365;47;20172;-80
2021/10/01 19:40:40;;;;;;;3.10;1.45;;;15.50;99.90;;;;;;2630830;47;20134;-79
2021/10/01 19:43:12;;;;;;;3.60;1.52;;;15.70;99.90;;;;;;2631201;47;20157;-81
2021/10/01 19:45:41;;;;;;;2.63;1.67;;;15.60;99.90;;;;;;2631543;54;20264;-79
2021/10/01 19:48:10;;;;;;;3.10;1.20;;;15.50;99.90;;;;;;2631408;54;20161;-80
2021/10/01 19:50:39;;;;;;;5.53;1.85;;;15.50;99.90;;;;;;2631414;46;20160;-80
2021/10/01 19:53:11;;;;;;;4.38;2.95;;;15.60;99.90;;;;;;2631520;54;20126;-81
2021/10/01 19:55:43;;;;;;;4.65;3.20;;;15.50;99.90;;;;;;2634680;46;20156;-82
2021/10/01 19:58:15;;;;;;;3.13;1.52;;;15.60;99.90;;;;;;2630920;54;20180;-80
2021/10/01 20:00:49;;;;;;;27.00;23.83;;;15.60;99.90;;;;;;2631661;46;20141;-80
2021/10/01 20:03:18;;;;;;;22.15;19.33;;;15.50;99.90;;;;;;2631724;54;20147;-81
2021/10/01 20:05:46;;;;;;;40.28;36.00;;;15.40;99.90;;;;;;2631671;47;20141;-81
2021/10/01 20:08:15;;;;;;;9.35;5.88;;;15.50;99.90;;;;;;2630723;46;20177;-77
2021/10/01 20:10:44;;;;;;;5.32;4.82;;;15.40;99.90;;;;;;2632830;39;20595;-79
2021/10/01 20:13:16;;;;;;;4.53;3.65;;;15.30;99.90;;;;;;2630954;47;20146;-77